Time;durP1;ratioP1;P1;durP2;ratioP2;P2;SDS_P1;SDS_P2;PMS_P1;PMS_P2;Temp;Humidity;BMP_temperature;BMP_pressure;BME280_temperature;BME280_humidity;BME280_pressure;Samples;Min_cycle;Max_cycle;Signal;HPM_P1;HPM_P2
2023/06/01 00:01:53;;;;;;;1.15;1.10;;;16.60;99.90;;;;;;5061846;28;20211;-65
2023/06/01 00:04:20;;;;;;;1.10;1.10;;;16.50;99.90;;;;;;5057981;28;20208;-64
2023/06/01 00:06:47;;;;;;;1.35;1.25;;;16.50;99.90;;;;;;5053819;28;20221;-63
2023/06/01 00:09:15;;;;;;;1.20;1.10;;;16.50;99.90;;;;;;5052808;28;20200;-64
2023/06/01 00:11:42;;;;;;;1.30;1.20;;;16.30;99.90;;;;;;5053550;28;20210;-65
2023/06/01 00:14:09;;;;;;;1.30;1.20;;;16.30;99.90;;;;;;5054096;28;20233;-64
2023/06/01 00:16:36;;;;;;;1.10;1.10;;;16.30;99.90;;;;;;5053682;28;20215;-64
2023/06/01 00:19:03;;;;;;;1.30;1.20;;;16.20;99.90;;;;;;5053382;28;20208;-65
2023/06/01 00:21:32;;;;;;;1.10;1.10;;;16.10;99.90;;;;;;5053311;28;20224;-64
2023/06/01 00:24:00;;;;;;;1.23;1.20;;;16.00;99.90;;;;;;5053489;28;20208;-64
2023/06/01 00:26:29;;;;;;;1.20;1.20;;;16.00;99.90;;;;;;5053896;28;20215;-63
2023/06/01 00:28:56;;;;;;;1.42;1.33;;;16.00;99.90;;;;;;5057111;28;20208;-65
2023/06/01 00:31:23;;;;;;;1.02;1.02;;;15.90;99.90;;;;;;5054861;28;20224;-65
2023/06/01 00:33:52;;;;;;;1.10;1.10;;;15.90;99.90;;;;;;5053767;28;20315;-65
2023/06/01 00:36:19;;;;;;;1.15;1.15;;;15.90;99.90;;;;;;5053886;28;20625;-63
2023/06/01 00:38:45;;;;;;;1.50;1.00;;;15.90;99.90;;;;;;5053415;28;20565;-64
2023/06/01 00:41:12;;;;;;;1.33;1.23;;;15.90;99.90;;;;;;5053394;28;20227;-64
2023/06/01 00:43:40;;;;;;;1.08;1.08;;;15.80;99.90;;;;;;5053522;28;20204;-64
2023/06/01 00:46:08;;;;;;;2.63;1.10;;;15.90;99.90;;;;;;5053582;28;20314;-64
2023/06/01 00:48:35;;;;;;;1.45;1.30;;;15.80;99.90;;;;;;5054064;28;20231;-63
2023/06/01 00:51:02;;;;;;;1.23;1.15;;;15.80;99.90;;;;;;5054835;28;20995;-64
2023/06/01 00:53:29;;;;;;;1.00;1.00;;;15.90;99.90;;;;;;5065205;28;20235;-63
2023/06/01 00:55:56;;;;;;;1.20;1.20;;;15.80;99.90;;;;;;5064747;28;20204;-64
2023/06/01 00:58:23;;;;;;;1.10;1.10;;;15.80;99.90;;;;;;5067835;28;20547;-63
2023/06/01 01:00:53;;;;;;;1.40;1.30;;;15.80;99.90;;;;;;5066376;28;20296;-64
2023/06/01 01:03:21;;;;;;;1.17;1.17;;;15.80;99.90;;;;;;5067326;28;20214;-63
2023/06/01 01:05:50;;;;;;;1.30;1.20;;;15.80;99.90;;;;;;5057898;28;20628;-64
2023/06/01 01:08:25;;;;;;;1.08;1.08;;;15.80;99.90;;;;;;5059265;28;20200;-63
2023/06/01 01:11:00;;;;;;;1.08;1.08;;;15.70;99.90;;;;;;5068198;28;20229;-63
2023/06/01 01:13:31;;;;;;;1.05;1.05;;;15.70;99.90;;;;;;5076399;28;20213;-63
2023/06/01 01:16:04;;;;;;;1.10;1.10;;;15.60;99.90;;;;;;5075460;28;20322;-64
2023/06/01 01:18:37;;;;;;;1.10;1.10;;;15.60;99.90;;;;;;5074074;28;20202;-64
2023/06/01 01:21:21;;;;;;;1.10;1.10;;;15.50;99.90;;;;;;5073384;28;20250;-65
2023/06/01 01:24:21;;;;;;;1.75;1.30;;;15.30;99.90;;;;;;5073479;28;20213;-63
2023/06/01 01:26:58;;;;;;;1.10;1.10;;;15.20;99.90;;;;;;5067903;28;20218;-64
2023/06/01 01:29:29;;;;;;;1.20;1.10;;;15.20;99.90;;;;;;5072026;28;20262;-64
2023/06/01 01:31:57;;;;;;;1.70;1.02;;;15.20;99.90;;;;;;5069936;28;20217;-63
2023/06/01 01:34:28;;;;;;;1.10;1.10;;;15.10;99.90;;;;;;5072323;28;20227;-64
2023/06/01 01:36:55;;;;;;;1.00;1.00;;;15.20;99.90;;;;;;5072467;28;20191;-64
2023/06/01 01:39:22;;;;;;;0.98;0.98;;;15.20;99.90;;;;;;5071947;28;20234;-64
2023/06/01 01:41:49;;;;;;;1.33;1.10;;;15.20;99.90;;;;;;5072624;28;20203;-64
2023/06/01 01:44:16;;;;;;;1.05;1.05;;;15.30;99.90;;;;;;5072464;28;20199;-63
2023/06/01 01:46:53;;;;;;;1.05;1.05;;;15.30;99.90;;;;;;5072761;28;20222;-65
2023/06/01 01:49:24;;;;;;;1.30;1.20;;;15.40;99.90;;;;;;5072129;28;20210;-65
2023/06/01 01:51:56;;;;;;;1.30;1.30;;;15.40;99.90;;;;;;5072127;28;20246;-63
2023/06/01 01:54:25;;;;;;;1.00;1.00;;;15.40;99.90;;;;;;5072132;28;20589;-64
2023/06/01 01:56:57;;;;;;;0.93;0.93;;;15.40;99.90;;;;;;5081550;28;20207;-65
2023/06/01 01:59:28;;;;;;;1.10;1.10;;;15.40;99.90;;;;;;5071765;28;20214;-63
2023/06/01 02:02:00;;;;;;;1.20;1.10;;;15.30;99.90;;;;;;5072292;28;20210;-63
2023/06/01 02:04:28;;;;;;;1.30;1.23;;;15.20;99.90;;;;;;5071275;28;20298;-65
2023/06/01 02:06:55;;;;;;;1.90;1.30;;;15.20;99.90;;;;;;5076509;28;20221;-65
2023/06/01 02:09:23;;;;;;;1.25;1.25;;;15.20;99.90;;;;;;5071834;28;20203;-63
2023/06/01 02:11:53;;;;;;;1.00;1.00;;;15.20;99.90;;;;;;5072625;28;20298;-63
2023/06/01 02:14:20;;;;;;;1.25;1.20;;;15.10;99.90;;;;;;5076072;28;20227;-63
2023/06/01 02:16:51;;;;;;;1.20;1.20;;;15.10;99.90;;;;;;5074530;28;20211;-64
2023/06/01 02:19:25;;;;;;;1.15;1.15;;;15.10;99.90;;;;;;5076357;28;20290;-63
2023/06/01 02:21:57;;;;;;;1.00;1.00;;;15.10;99.90;;;;;;5074200;28;20202;-64
2023/06/01 02:24:31;;;;;;;1.00;1.00;;;15.10;99.90;;;;;;5071923;28;20188;-63
2023/06/01 02:27:05;;;;;;;1.40;1.30;;;15.10;99.90;;;;;;5071062;28;20268;-65
2023/06/01 02:29:32;;;;;;;1.50;1.40;;;15.10;99.90;;;;;;5071055;28;20235;-64
2023/06/01 02:31:59;;;;;;;1.90;1.30;;;15.10;99.90;;;;;;5071434;28;20313;-62
2023/06/01 02:34:30;;;;;;;0.98;0.98;;;15.20;99.90;;;;;;5071510;28;20262;-64
2023/06/01 02:37:06;;;;;;;1.50;1.40;;;15.20;99.90;;;;;;5071532;28;20606;-64
2023/06/01 02:39:36;;;;;;;1.25;1.23;;;15.10;99.90;;;;;;5070665;28;20227;-63
2023/06/01 02:42:03;;;;;;;1.30;1.20;;;15.10;99.90;;;;;;5070818;28;20314;-64
2023/06/01 02:44:30;;;;;;;1.10;1.10;;;15.10;99.90;;;;;;5071266;28;20207;-64
2023/06/01 02:46:58;;;;;;;1.30;1.20;;;15.00;99.90;;;;;;5070564;28;20217;-64
2023/06/01 02:49:27;;;;;;;1.45;1.35;;;15.00;99.90;;;;;;5070205;28;20195;-63
2023/06/01 02:51:54;;;;;;;1.23;1.20;;;15.00;99.90;;;;;;5071563;28;20207;-63
2023/06/01 02:54:24;;;;;;;1.17;1.17;;;15.00;99.90;;;;;;5070225;28;20946;-64
2023/06/01 02:56:51;;;;;;;1.30;1.30;;;15.00;99.90;;;;;;5071182;28;20206;-64
2023/06/01 02:59:19;;;;;;;1.20;1.20;;;15.00;99.90;;;;;;5070607;28;20209;-63
2023/06/01 03:01:54;;;;;;;1.40;1.30;;;14.90;99.90;;;;;;5072428;28;20646;-63
2023/06/01 03:04:24;;;;;;;1.40;1.30;;;15.00;99.90;;;;;;5072308;28;20297;-63
2023/06/01 03:06:54;;;;;;;1.40;1.30;;;15.00;99.90;;;;;;5075606;28;20314;-64
2023/06/01 03:09:21;;;;;;;1.23;1.15;;;14.90;99.90;;;;;;5076370;28;20704;-63
2023/06/01 03:11:48;;;;;;;1.10;1.10;;;14.90;99.90;;;;;;5075418;28;20585;-63
2023/06/01 03:14:18;;;;;;;1.30;1.20;;;14.80;99.90;;;;;;5073166;28;20316;-63
2023/06/01 03:16:47;;;;;;;1.77;1.38;;;14.80;99.90;;;;;;5071729;28;20302;-64
2023/06/01 03:19:16;;;;;;;1.48;1.23;;;14.80;99.90;;;;;;5069948;28;20583;-63
2023/06/01 03:21:43;;;;;;;1.40;1.30;;;14.80;99.90;;;;;;5071209;28;20217;-64
2023/06/01 03:24:12;;;;;;;1.50;1.40;;;14.90;99.90;;;;;;5071262;28;20207;-63
2023/06/01 03:26:41;;;;;;;1.17;1.17;;;14.80;99.90;;;;;;5070987;28;20277;-63
2023/06/01 03:29:10;;;;;;;1.10;1.10;;;14.80;99.90;;;;;;5070603;28;20235;-63
2023/06/01 03:31:45;;;;;;;1.15;1.15;;;14.80;99.90;;;;;;5070606;28;20211;-66
2023/06/01 03:34:17;;;;;;;1.13;1.13;;;14.90;99.90;;;;;;5070577;28;20203;-63
2023/06/01 03:36:48;;;;;;;1.10;1.10;;;14.90;99.90;;;;;;5070854;28;20293;-65
2023/06/01 03:39:19;;;;;;;1.48;1.25;;;15.00;99.90;;;;;;5070036;28;20211;-63
2023/06/01 03:41:48;;;;;;;1.30;1.30;;;14.90;99.90;;;;;;5070298;28;20210;-64
2023/06/01 03:44:15;;;;;;;1.20;1.15;;;15.00;99.90;;;;;;5070893;28;20211;-63
2023/06/01 03:46:46;;;;;;;1.27;1.23;;;15.00;99.90;;;;;;5070513;28;20689;-63
2023/06/01 03:49:17;;;;;;;1.30;1.20;;;15.00;99.90;;;;;;5069897;28;20685;-63
2023/06/01 03:51:48;;;;;;;1.10;1.10;;;14.90;99.90;;;;;;5070656;28;20758;-65
2023/06/01 03:54:18;;;;;;;1.20;1.20;;;14.90;99.90;;;;;;5071238;28;20660;-63
2023/06/01 03:56:48;;;;;;;1.48;1.38;;;15.00;99.90;;;;;;5071147;28;20214;-64
2023/06/01 03:59:17;;;;;;;1.20;1.20;;;15.00;99.90;;;;;;5070100;28;20203;-64
2023/06/01 04:01:51;;;;;;;1.10;1.10;;;15.00;99.90;;;;;;5069965;28;20207;-63
2023/06/01 04:04:20;;;;;;;1.10;1.10;;;15.00;99.90;;;;;;5068762;28;20207;-64
2023/06/01 04:06:49;;;;;;;1.10;1.10;;;15.00;99.90;;;;;;5070594;28;20700;-65
2023/06/01 04:09:18;;;;;;;1.35;1.25;;;15.10;99.90;;;;;;5069562;28;20902;-64
2023/06/01 04:11:45;;;;;;;0.98;0.98;;;15.10;99.90;;;;;;5070644;28;20213;-63
2023/06/01 04:14:12;;;;;;;1.70;1.20;;;15.00;99.90;;;;;;5071211;28;20233;-65
2023/06/01 04:16:40;;;;;;;1.30;1.30;;;15.10;99.90;;;;;;5074437;28;20225;-63
2023/06/01 04:19:12;;;;;;;1.35;1.25;;;15.10;99.90;;;;;;5073865;28;20215;-65
2023/06/01 04:21:40;;;;;;;2.53;1.20;;;15.10;99.90;;;;;;5074789;28;20191;-64
2023/06/01 04:24:07;;;;;;;1.38;1.30;;;15.10;99.90;;;;;;5074252;28;20203;-64
2023/06/01 04:26:36;;;;;;;1.80;1.20;;;15.10;99.90;;;;;;5074266;28;20290;-64
2023/06/01 04:29:08;;;;;;;1.20;1.20;;;15.10;99.90;;;;;;5073893;28;20204;-62
2023/06/01 04:31:38;;;;;;;1.20;1.20;;;15.10;99.90;;;;;;5074006;28;20231;-64
2023/06/01 04:34:05;;;;;;;1.00;1.00;;;15.10;99.90;;;;;;5073595;28;20230;-64
2023/06/01 04:36:37;;;;;;;1.30;1.30;;;15.10;99.90;;;;;;5072406;28;20215;-64
2023/06/01 04:39:11;;;;;;;1.63;1.52;;;15.20;99.90;;;;;;5063058;28;20253;-64
2023/06/01 04:41:39;;;;;;;1.20;1.20;;;15.20;99.90;;;;;;5069963;28;20577;-64
2023/06/01 04:44:08;;;;;;;1.95;1.30;;;15.20;99.90;;;;;;5072463;28;20658;-64
2023/06/01 04:46:39;;;;;;;1.50;1.40;;;15.20;99.90;;;;;;5076833;28;20294;-64
2023/06/01 04:49:15;;;;;;;1.25;1.25;;;15.20;99.90;;;;;;5072434;28;20224;-64
2023/06/01 04:51:45;;;;;;;1.20;1.20;;;15.20;99.90;;;;;;5066923;28;20242;-64
2023/06/01 04:54:12;;;;;;;1.42;1.33;;;15.30;99.90;;;;;;5072949;28;20713;-65
2023/06/01 04:56:44;;;;;;;1.42;1.33;;;15.30;99.90;;;;;;5073875;28;20286;-63
2023/06/01 04:59:15;;;;;;;1.20;1.20;;;15.30;99.90;;;;;;5073199;28;20191;-64
2023/06/01 05:01:44;;;;;;;1.33;1.33;;;15.40;99.90;;;;;;5064814;28;20222;-64
2023/06/01 05:04:14;;;;;;;1.50;1.40;;;15.40;99.90;;;;;;5073333;28;20195;-62
2023/06/01 05:06:47;;;;;;;1.70;1.60;;;15.50;99.90;;;;;;5073423;28;20231;-64
2023/06/01 05:09:18;;;;;;;1.50;1.48;;;15.50;99.90;;;;;;5072907;28;20848;-63
2023/06/01 05:11:46;;;;;;;2.35;1.50;;;15.60;99.90;;;;;;5064282;28;20205;-65
2023/06/01 05:14:16;;;;;;;1.38;1.33;;;15.70;99.90;;;;;;5056637;28;20219;-63
2023/06/01 05:16:55;;;;;;;1.52;1.42;;;15.80;99.90;;;;;;5062682;28;20204;-65
2023/06/01 05:19:25;;;;;;;1.48;1.40;;;16.00;99.90;;;;;;5066044;28;20207;-65
2023/06/01 05:21:52;;;;;;;1.70;1.60;;;16.10;99.90;;;;;;5061565;28;20890;-65
2023/06/01 05:24:20;;;;;;;1.48;1.38;;;16.30;99.90;;;;;;5065180;28;20206;-64
2023/06/01 05:26:48;;;;;;;2.03;1.50;;;16.60;99.90;;;;;;5063715;28;20205;-63
2023/06/01 05:29:15;;;;;;;1.10;1.10;;;16.80;99.90;;;;;;5068581;28;20206;-64
2023/06/01 05:31:52;;;;;;;1.98;1.58;;;17.00;99.90;;;;;;5070885;28;20210;-63
2023/06/01 05:34:20;;;;;;;1.38;1.33;;;17.30;99.90;;;;;;5064920;28;20211;-65
2023/06/01 05:36:50;;;;;;;1.23;1.23;;;17.40;99.90;;;;;;5072835;28;20273;-63
2023/06/01 05:39:21;;;;;;;1.58;1.40;;;17.70;99.90;;;;;;5069056;28;20262;-65
2023/06/01 05:41:53;;;;;;;1.50;1.40;;;18.00;99.90;;;;;;5065585;28;20207;-63
2023/06/01 05:44:23;;;;;;;4.80;1.40;;;18.20;99.90;;;;;;5062504;28;20199;-63
2023/06/01 05:46:53;;;;;;;1.60;1.55;;;18.40;99.90;;;;;;5076201;28;20624;-64
2023/06/01 05:49:22;;;;;;;1.33;1.23;;;18.60;99.90;;;;;;5072504;28;20207;-64
2023/06/01 05:51:55;;;;;;;2.35;2.03;;;18.90;99.90;;;;;;5072141;28;20226;-64
2023/06/01 05:54:22;;;;;;;1.40;1.30;;;19.00;99.90;;;;;;5072344;28;20254;-63
2023/06/01 05:56:53;;;;;;;1.40;1.40;;;19.10;99.90;;;;;;5069250;28;20203;-64
2023/06/01 05:59:20;;;;;;;1.55;1.48;;;19.00;99.90;;;;;;5063834;28;20260;-64
2023/06/01 06:01:47;;;;;;;1.50;1.50;;;19.10;99.90;;;;;;5071524;28;20209;-65
2023/06/01 06:04:16;;;;;;;1.67;1.58;;;19.20;99.90;;;;;;5072246;28;20199;-65
2023/06/01 06:06:49;;;;;;;1.63;1.45;;;19.30;99.90;;;;;;5072255;28;20678;-65
2023/06/01 06:09:19;;;;;;;1.60;1.50;;;19.40;99.90;;;;;;5071339;28;20639;-64
2023/06/01 06:11:46;;;;;;;4.20;1.60;;;19.40;99.90;;;;;;5071869;28;20207;-65
2023/06/01 06:14:14;;;;;;;1.45;1.40;;;19.50;99.90;;;;;;5071767;28;20230;-64
2023/06/01 06:16:42;;;;;;;1.70;1.60;;;19.50;99.90;;;;;;5072246;28;20570;-65
2023/06/01 06:19:09;;;;;;;1.73;1.63;;;19.60;99.90;;;;;;5071633;28;20199;-63
2023/06/01 06:21:38;;;;;;;1.90;1.70;;;19.80;99.90;;;;;;5062158;28;20309;-64
2023/06/01 06:24:05;;;;;;;1.75;1.65;;;19.80;99.90;;;;;;5064804;28;20196;-64
2023/06/01 06:26:32;;;;;;;1.88;1.77;;;19.80;99.90;;;;;;5061664;28;20210;-64
2023/06/01 06:28:59;;;;;;;1.70;1.60;;;19.90;99.90;;;;;;5070046;28;20235;-63
2023/06/01 06:31:28;;;;;;;1.73;1.63;;;19.90;99.90;;;;;;5062588;28;20978;-64
2023/06/01 06:33:55;;;;;;;1.60;1.50;;;20.00;99.90;;;;;;5060855;28;20211;-64
2023/06/01 06:36:21;;;;;;;2.05;1.70;;;20.00;99.90;;;;;;5060484;28;20242;-65
2023/06/01 06:38:48;;;;;;;1.70;1.60;;;20.10;99.90;;;;;;5063187;28;20212;-65
2023/06/01 06:41:15;;;;;;;1.70;1.60;;;20.10;99.90;;;;;;5058881;28;20306;-65
2023/06/01 06:43:42;;;;;;;2.17;1.90;;;20.10;99.90;;;;;;5061688;28;20677;-64
2023/06/01 06:46:09;;;;;;;1.70;1.60;;;20.10;99.90;;;;;;5068471;28;20215;-66
2023/06/01 06:48:37;;;;;;;1.75;1.65;;;20.10;99.90;;;;;;5070511;28;20210;-63
2023/06/01 06:51:04;;;;;;;1.70;1.60;;;20.20;99.90;;;;;;5070162;28;20732;-64
2023/06/01 06:53:33;;;;;;;1.50;1.40;;;20.20;99.90;;;;;;5071394;28;20218;-63
2023/06/01 06:55:59;;;;;;;1.60;1.50;;;20.20;99.90;;;;;;5071270;28;20341;-63
2023/06/01 06:58:27;;;;;;;1.50;1.40;;;20.30;99.90;;;;;;5071627;28;20209;-64
2023/06/01 07:00:54;;;;;;;1.70;1.60;;;20.20;99.90;;;;;;5066207;28;20226;-64
2023/06/01 07:03:21;;;;;;;1.60;1.50;;;20.10;99.90;;;;;;5058342;28;20721;-64
2023/06/01 07:05:49;;;;;;;1.90;1.70;;;20.10;99.90;;;;;;5051784;28;20196;-64
2023/06/01 07:08:16;;;;;;;1.67;1.58;;;20.40;99.90;;;;;;5066162;28;20282;-64
2023/06/01 07:10:43;;;;;;;1.70;1.60;;;20.40;99.90;;;;;;5062954;28;20310;-63
2023/06/01 07:13:10;;;;;;;1.45;1.33;;;20.40;99.90;;;;;;5054640;28;20298;-64
2023/06/01 07:15:37;;;;;;;1.63;1.52;;;20.40;99.90;;;;;;5052364;28;20246;-63
2023/06/01 07:18:04;;;;;;;1.63;1.52;;;20.50;99.90;;;;;;5065000;28;20217;-63
2023/06/01 07:20:30;;;;;;;1.77;1.67;;;20.60;99.90;;;;;;5071404;28;20223;-63
2023/06/01 07:22:59;;;;;;;1.63;1.52;;;20.60;99.90;;;;;;5071751;28;20217;-64
2023/06/01 07:25:26;;;;;;;1.95;1.60;;;20.70;99.90;;;;;;5078481;28;20209;-64
2023/06/01 07:27:56;;;;;;;2.38;1.58;;;20.80;99.90;;;;;;5071386;28;20219;-64
2023/06/01 07:30:22;;;;;;;2.97;1.73;;;20.90;99.90;;;;;;5070609;28;20228;-67
2023/06/01 07:32:49;;;;;;;2.03;1.60;;;21.10;99.90;;;;;;5067672;28;20566;-63
2023/06/01 07:35:17;;;;;;;1.70;1.60;;;21.10;99.90;;;;;;5069701;28;20226;-64
2023/06/01 07:37:44;;;;;;;1.83;1.58;;;21.20;99.90;;;;;;5061097;28;20252;-64
2023/06/01 07:40:13;;;;;;;1.77;1.48;;;21.30;99.90;;;;;;5059726;28;20736;-63
2023/06/01 07:42:40;;;;;;;1.40;1.30;;;21.40;99.90;;;;;;5069156;28;20677;-64
2023/06/01 07:45:09;;;;;;;1.75;1.60;;;21.40;99.90;;;;;;5069976;28;20198;-64
2023/06/01 07:47:35;;;;;;;1.60;1.50;;;21.60;99.90;;;;;;5070388;28;20218;-64
2023/06/01 07:50:02;;;;;;;2.25;1.60;;;21.60;99.90;;;;;;5071867;28;20231;-64
2023/06/01 07:52:29;;;;;;;1.35;1.25;;;21.60;99.90;;;;;;5075171;28;20208;-64
2023/06/01 07:54:57;;;;;;;1.65;1.55;;;21.70;99.90;;;;;;5075123;28;20219;-65
2023/06/01 07:57:25;;;;;;;1.52;1.42;;;21.70;99.90;;;;;;5074407;28;20276;-63
2023/06/01 07:59:52;;;;;;;2.08;1.40;;;21.80;99.90;;;;;;5074325;28;20227;-64
2023/06/01 08:02:20;;;;;;;2.90;1.65;;;21.90;99.90;;;;;;5074432;28;20207;-64
2023/06/01 08:04:47;;;;;;;1.73;1.48;;;22.00;99.90;;;;;;5074672;28;20196;-64
2023/06/01 08:07:16;;;;;;;1.42;1.30;;;22.10;99.90;;;;;;5074680;28;20207;-64
2023/06/01 08:09:43;;;;;;;1.40;1.30;;;22.20;99.90;;;;;;5074067;28;20254;-65
2023/06/01 08:12:11;;;;;;;1.70;1.60;;;22.30;99.90;;;;;;5075029;28;20280;-63
2023/06/01 08:14:40;;;;;;;1.60;1.50;;;22.30;99.90;;;;;;5074806;28;20242;-65
2023/06/01 08:17:08;;;;;;;1.40;1.30;;;22.40;99.90;;;;;;5075322;28;20207;-63
2023/06/01 08:19:35;;;;;;;1.50;1.40;;;22.50;99.90;;;;;;5076118;28;20709;-63
2023/06/01 08:22:04;;;;;;;1.63;1.52;;;22.50;99.90;;;;;;5078716;28;20303;-65
2023/06/01 08:24:32;;;;;;;1.48;1.42;;;22.60;99.90;;;;;;5074233;28;20207;-65
2023/06/01 08:26:59;;;;;;;1.60;1.50;;;22.70;99.90;;;;;;5074871;28;20206;-63
2023/06/01 08:29:26;;;;;;;2.10;1.40;;;22.80;99.90;;;;;;5074162;28;20241;-63
2023/06/01 08:31:59;;;;;;;1.55;1.45;;;22.90;99.90;;;;;;5076484;28;20222;-63
2023/06/01 08:34:25;;;;;;;1.50;1.40;;;23.10;99.90;;;;;;5075312;28;20587;-64
2023/06/01 08:36:52;;;;;;;1.60;1.50;;;23.30;99.90;;;;;;5074396;28;20233;-63
2023/06/01 08:39:23;;;;;;;1.27;1.23;;;23.30;99.90;;;;;;5074053;28;20217;-64
2023/06/01 08:42:03;;;;;;;1.60;1.50;;;23.40;99.90;;;;;;5085000;28;20203;-64
2023/06/01 08:44:36;;;;;;;1.52;1.42;;;23.40;99.90;;;;;;5079771;28;20213;-65
2023/06/01 08:47:05;;;;;;;1.45;1.27;;;23.40;99.90;;;;;;5076387;28;20223;-63
2023/06/01 08:49:34;;;;;;;1.58;1.48;;;23.60;99.90;;;;;;5075615;28;20674;-64
2023/06/01 08:52:02;;;;;;;1.50;1.40;;;23.60;99.90;;;;;;5077916;28;20217;-64
2023/06/01 08:54:30;;;;;;;1.40;1.30;;;23.80;99.90;;;;;;5082802;28;20213;-64
2023/06/01 08:57:00;;;;;;;1.42;1.33;;;23.90;99.90;;;;;;5082943;28;20254;-64
2023/06/01 08:59:27;;;;;;;1.83;1.58;;;24.00;99.90;;;;;;5087215;28;20203;-65
2023/06/01 09:01:54;;;;;;;1.70;1.50;;;24.10;99.90;;;;;;5083662;28;20298;-64
2023/06/01 09:04:22;;;;;;;1.40;1.30;;;24.10;99.90;;;;;;5085402;28;20217;-64
2023/06/01 09:06:49;;;;;;;1.60;1.50;;;24.10;99.90;;;;;;5084400;28;20195;-65
2023/06/01 09:09:16;;;;;;;1.70;1.52;;;24.00;99.90;;;;;;5083398;28;20298;-64
2023/06/01 09:11:43;;;;;;;1.33;1.30;;;24.00;99.90;;;;;;5081640;28;20288;-63
2023/06/01 09:14:24;;;;;;;1.27;1.20;;;24.00;99.90;;;;;;5076220;28;20211;-63
2023/06/01 09:16:51;;;;;;;2.33;1.80;;;24.30;99.90;;;;;;5074482;28;20219;-65
2023/06/01 09:19:20;;;;;;;1.80;1.45;;;24.50;99.90;;;;;;5072940;28;20623;-64
2023/06/01 09:21:58;;;;;;;1.60;1.50;;;24.40;99.90;;;;;;5076150;28;20211;-63
2023/06/01 09:24:25;;;;;;;1.42;1.33;;;24.50;99.90;;;;;;5076455;28;20207;-64
2023/06/01 09:26:59;;;;;;;1.70;1.60;;;24.40;99.90;;;;;;5074014;28;20203;-65
2023/06/01 09:29:26;;;;;;;1.42;1.33;;;24.40;99.90;;;;;;5072617;28;20211;-66
2023/06/01 09:31:53;;;;;;;1.52;1.42;;;24.50;99.90;;;;;;5075672;28;20238;-66
2023/06/01 09:34:22;;;;;;;1.27;1.27;;;24.70;99.90;;;;;;5081501;28;20209;-64
2023/06/01 09:36:49;;;;;;;1.70;1.60;;;24.80;99.90;;;;;;5079922;28;20258;-63
2023/06/01 09:39:20;;;;;;;1.55;1.30;;;25.00;99.90;;;;;;5078865;28;20290;-64
2023/06/01 09:41:49;;;;;;;1.58;1.48;;;25.10;99.90;;;;;;5079232;28;20725;-64
2023/06/01 09:44:24;;;;;;;1.65;1.55;;;25.10;99.90;;;;;;5075225;28;20726;-64
2023/06/01 09:46:52;;;;;;;1.98;1.88;;;25.00;99.90;;;;;;5073879;28;20207;-64
2023/06/01 09:49:21;;;;;;;1.60;1.50;;;25.20;99.90;;;;;;5072923;28;20203;-64
2023/06/01 09:51:48;;;;;;;1.45;1.35;;;25.10;99.90;;;;;;5073298;28;20211;-63
2023/06/01 09:54:31;;;;;;;1.42;1.40;;;25.20;99.90;;;;;;5073565;28;20211;-63
2023/06/01 09:56:59;;;;;;;1.67;1.58;;;25.20;99.90;;;;;;5073390;28;20226;-63
2023/06/01 09:59:28;;;;;;;1.40;1.30;;;25.30;99.90;;;;;;5072638;28;20253;-65
2023/06/01 10:01:57;;;;;;;2.00;1.77;;;25.50;99.90;;;;;;5072885;28;20284;-66
2023/06/01 10:04:26;;;;;;;1.98;1.88;;;25.50;99.90;;;;;;5073304;28;20257;-65
2023/06/01 10:06:54;;;;;;;2.45;1.50;;;25.50;99.90;;;;;;5072863;28;20210;-65
2023/06/01 10:09:24;;;;;;;1.42;1.33;;;25.60;99.90;;;;;;5072095;28;20571;-64
2023/06/01 10:11:54;;;;;;;2.42;1.65;;;25.70;99.90;;;;;;5072329;28;20227;-65
2023/06/01 10:14:21;;;;;;;1.60;1.50;;;25.60;99.90;;;;;;5072107;28;20616;-65
2023/06/01 10:16:50;;;;;;;1.63;1.35;;;25.60;99.90;;;;;;5072644;28;20250;-65
2023/06/01 10:19:17;;;;;;;3.22;3.03;;;25.60;99.90;;;;;;5071509;28;20203;-65
2023/06/01 10:21:45;;;;;;;1.58;1.48;;;25.60;99.90;;;;;;5072161;28;20211;-64
2023/06/01 10:24:12;;;;;;;2.97;1.80;;;25.70;99.90;;;;;;5072671;28;20607;-66
2023/06/01 10:26:47;;;;;;;1.10;1.10;;;25.80;99.90;;;;;;5072250;28;20294;-63
2023/06/01 10:29:18;;;;;;;1.60;1.50;;;25.90;99.90;;;;;;5071465;28;20202;-65
2023/06/01 10:31:45;;;;;;;1.40;1.30;;;26.10;99.90;;;;;;5072771;28;20198;-66
2023/06/01 10:34:13;;;;;;;1.40;1.40;;;26.30;99.90;;;;;;5073161;28;20578;-66
2023/06/01 10:37:11;;;;;;;1.77;1.60;;;26.50;99.90;;;;;;5073472;28;20229;-66
2023/06/01 10:39:38;;;;;;;2.28;1.40;;;26.50;99.90;;;;;;5072106;28;20264;-64
2023/06/01 10:42:39;;;;;;;2.05;1.60;;;26.70;99.90;;;;;;5071838;28;20207;-66
2023/06/01 10:45:29;;;;;;;1.63;1.52;;;26.70;99.90;;;;;;5071914;28;20590;-64
2023/06/01 10:47:56;;;;;;;1.80;1.70;;;26.70;99.90;;;;;;5072266;28;20294;-65
2023/06/01 10:50:24;;;;;;;1.27;1.27;;;26.80;99.90;;;;;;5071737;28;20227;-65
2023/06/01 10:52:51;;;;;;;1.20;1.20;;;26.80;99.90;;;;;;5072421;28;20684;-64
2023/06/01 10:55:23;;;;;;;1.52;1.42;;;26.80;99.90;;;;;;5071990;28;20264;-64
2023/06/01 10:57:51;;;;;;;1.50;1.40;;;27.00;99.90;;;;;;5072192;28;20602;-65
2023/06/01 11:00:23;;;;;;;1.65;1.55;;;27.10;99.90;;;;;;5071643;28;20215;-64
2023/06/01 11:02:58;;;;;;;1.60;1.50;;;27.20;99.90;;;;;;5072234;28;20237;-65
2023/06/01 11:05:52;;;;;;;1.55;1.45;;;27.20;99.90;;;;;;5071670;28;20203;-64
2023/06/01 11:08:57;;;;;;;1.40;1.25;;;27.10;99.90;;;;;;5071555;28;20233;-66
2023/06/01 11:11:24;;;;;;;1.60;1.50;;;27.10;99.90;;;;;;5070640;28;20226;-65
2023/06/01 11:14:12;;;;;;;1.70;1.60;;;27.10;99.90;;;;;;5071544;28;20261;-66
2023/06/01 11:16:40;;;;;;;1.55;1.45;;;27.20;99.90;;;;;;5071222;28;20307;-64
2023/06/01 11:19:08;;;;;;;1.75;1.65;;;27.30;99.90;;;;;;5070712;28;20209;-64
2023/06/01 11:21:41;;;;;;;1.63;1.48;;;27.40;99.90;;;;;;5070946;28;20600;-64
2023/06/01 11:24:10;;;;;;;1.58;1.55;;;27.40;99.90;;;;;;5070800;28;20207;-64
2023/06/01 11:26:40;;;;;;;1.60;1.50;;;27.50;99.90;;;;;;5071568;28;20195;-65
2023/06/01 11:29:10;;;;;;;1.50;1.40;;;27.60;99.90;;;;;;5071731;28;20252;-63
2023/06/01 11:31:43;;;;;;;1.52;1.42;;;27.70;99.90;;;;;;5072647;28;20310;-65
2023/06/01 11:34:10;;;;;;;1.33;1.33;;;27.70;99.90;;;;;;5072879;28;20661;-64
2023/06/01 11:36:48;;;;;;;2.03;1.60;;;27.70;99.90;;;;;;5073750;28;20223;-65
2023/06/01 11:39:22;;;;;;;2.00;1.58;;;27.70;99.90;;;;;;5072914;28;20639;-65
2023/06/01 11:41:50;;;;;;;2.15;1.60;;;27.70;99.90;;;;;;5077764;28;20192;-64
2023/06/01 11:44:16;;;;;;;1.27;1.27;;;27.70;99.90;;;;;;5073006;28;20242;-64
2023/06/01 11:46:58;;;;;;;1.70;1.58;;;27.80;99.90;;;;;;5071338;28;20248;-64
2023/06/01 11:49:26;;;;;;;1.40;1.40;;;27.80;99.90;;;;;;5074872;28;20559;-65
2023/06/01 11:51:55;;;;;;;1.50;1.40;;;27.90;99.90;;;;;;5072987;28;20575;-65
2023/06/01 11:54:24;;;;;;;1.60;1.50;;;28.00;99.90;;;;;;5072056;28;20608;-64
2023/06/01 11:56:51;;;;;;;1.60;1.50;;;27.90;99.90;;;;;;5079277;28;20589;-65
2023/06/01 11:59:18;;;;;;;1.63;1.30;;;27.90;99.90;;;;;;5083487;28;20218;-65
2023/06/01 12:01:47;;;;;;;1.55;1.45;;;27.90;99.90;;;;;;5077410;28;20545;-65
2023/06/01 12:04:15;;;;;;;1.55;1.45;;;28.10;99.90;;;;;;5074025;28;20203;-64
2023/06/01 12:06:43;;;;;;;1.70;1.60;;;28.20;99.90;;;;;;5072943;28;20210;-64
2023/06/01 12:09:10;;;;;;;2.58;1.50;;;28.10;99.90;;;;;;5070251;28;20209;-64
2023/06/01 12:11:38;;;;;;;1.52;1.40;;;28.20;99.90;;;;;;5070821;28;20720;-65
2023/06/01 12:14:06;;;;;;;1.60;1.50;;;28.30;99.90;;;;;;5070820;28;20221;-63
2023/06/01 12:16:56;;;;;;;1.88;1.40;;;28.30;99.90;;;;;;5070590;28;20237;-65
2023/06/01 12:19:24;;;;;;;1.83;1.73;;;28.30;99.90;;;;;;5070439;28;20203;-65
2023/06/01 12:21:53;;;;;;;1.70;1.60;;;28.20;99.90;;;;;;5070930;28;20257;-65
2023/06/01 12:24:27;;;;;;;2.28;2.17;;;28.20;99.90;;;;;;5070896;28;20207;-65
2023/06/01 12:26:54;;;;;;;1.70;1.60;;;28.10;99.90;;;;;;5071121;28;20204;-63
2023/06/01 12:29:35;;;;;;;1.40;1.40;;;28.20;99.90;;;;;;5070631;28;20207;-63
2023/06/01 12:32:02;;;;;;;1.52;1.42;;;28.20;99.90;;;;;;5070497;28;20294;-64
2023/06/01 12:34:31;;;;;;;1.40;1.30;;;28.20;99.90;;;;;;5071067;28;20302;-64
2023/06/01 12:36:58;;;;;;;1.42;1.40;;;28.30;99.90;;;;;;5072629;28;20242;-64
2023/06/01 12:39:36;;;;;;;1.60;1.50;;;28.40;99.90;;;;;;5073462;28;20692;-66
2023/06/01 12:42:04;;;;;;;1.35;1.30;;;28.40;99.90;;;;;;5074048;28;20695;-65
2023/06/01 12:44:32;;;;;;;1.98;1.65;;;28.20;99.90;;;;;;5074372;28;20208;-65
2023/06/01 12:47:00;;;;;;;1.50;1.40;;;28.20;99.90;;;;;;5074160;28;20215;-65
2023/06/01 12:49:27;;;;;;;1.50;1.40;;;28.20;99.90;;;;;;5073562;28;20191;-64
2023/06/01 12:51:56;;;;;;;1.50;1.40;;;28.30;99.90;;;;;;5074712;28;20211;-65
2023/06/01 12:54:23;;;;;;;1.55;1.40;;;28.40;99.90;;;;;;5074274;28;20272;-65
2023/06/01 12:56:50;;;;;;;1.48;1.38;;;28.60;99.90;;;;;;5073581;28;20219;-65
2023/06/01 12:59:17;;;;;;;1.45;1.35;;;28.60;99.90;;;;;;5072847;28;20218;-65
2023/06/01 13:01:44;;;;;;;1.65;1.50;;;28.60;99.90;;;;;;5073046;28;20202;-64